メインページ
METAR-TAF:

METAR-TAF

空港 :

アンカラ-エセンボーア, トルコ

エセンボーア国際空港

緯度: 40-07N, 経度: 032-59E, 海抜: 953m

現時点の気象観測

当レポートは42分前の11:20(UTC)に作成
西の風 14kt、南西から西/北西の間で変化する
気温 5°C
湿度 65%
気圧 1011 hPa
視程10km以上
高度3500ftの千切れ雲あり
高度8000ftの千切れ雲あり

METAR: LTAC 231120Z 26014KT 230V290 9999 BKN035 BKN080 05/M01 Q1011 NOSIG RMK RWY21L 24015KT RWY03L 25012KT RWY21R 25015KT

時間: 15:02 (12:02 UTC)

予報

当レポートは1時間22分前の10:40(UTC)に作成
予報は23日の 12時(UTC)から 24日の 12時(UTC)まで有効
西の風 15kt
視程10km以上
高度3000ftの千切れ雲あり
高度8000ftの千切れ雲あり
23日の 12時(UTC)から 23日の 16時(UTC)まで一時的に
西の風 18kt、最大30ktの突風を伴う
高度1000ftの雲は散在している
高度2500ftの千切れ雲あり
弱いにわか雨, 雪
23日の 17時(UTC)から 23日の 20時(UTC)まで徐々に
変向風 2kt
高度4000ftの雲は散在している
24日の 05時(UTC)から 24日の 07時(UTC)まで徐々に
西の風 12kt
24日の 10時(UTC)から 24日の 12時(UTC)まで一時的に
西の風 15kt、最大25ktの突風を伴う
高度2500ftの雲はほとんどない, 積乱雲.
高度3000ftの千切れ雲あり
弱いにわか雨

TAF: LTAC 231040Z 2312/2412 27015KT 9999 BKN030 BKN080 TEMPO 2312/2316 27018G30KT -SHRASN SCT010 BKN025 BECMG 2317/2320 VRB02KT SCT040 BECMG 2405/2407 26012KT TEMPO 2410/2412 28015G25KT -SHRA FEW025CB BKN030

4,000以上の空港の気象観測と天気予報(METAR報とTAF報)

利用可能な観測所は地図上に黄色い丸と赤い丸で示す。

丸の上にカーソルを重ねると観測所名を参照できる。

次にクリックすると気象観測と天気予報を参照できる。

マップの切り替え:黒色「×」印の緑ボタンをクリックして拡大、「-」印の緑ボタンをクリックして縮小、緑色の三角印をクリックして隣りの地図に切り替え


METAR-TAF: